sensor_id;sensor_type;location;lat;lon;timestamp;pressure;altitude;pressure_sealevel;temperature;humidity
73936;BME280;62287;50.858;0.252;2022-08-19T00:00:24;101225.24;;;27.37;40.95
73936;BME280;62287;50.858;0.252;2022-08-19T00:00:55;101230.26;;;27.23;40.72
73936;BME280;62287;50.858;0.252;2022-08-19T00:01:28;101229.01;;;27.21;40.75
73936;BME280;62287;50.858;0.252;2022-08-19T00:01:59;101227.25;;;27.20;40.77
73936;BME280;62287;50.858;0.252;2022-08-19T00:02:30;101224.83;;;27.35;40.68
73936;BME280;62287;50.858;0.252;2022-08-19T00:03:02;101226.86;;;27.46;40.87
73936;BME280;62287;50.858;0.252;2022-08-19T00:03:33;101223.27;;;27.52;40.61
73936;BME280;62287;50.858;0.252;2022-08-19T00:04:06;101227.63;;;27.52;40.68
73936;BME280;62287;50.858;0.252;2022-08-19T00:04:38;101228.16;;;27.51;40.75
73936;BME280;62287;50.858;0.252;2022-08-19T00:05:10;101227.93;;;27.23;40.78
73936;BME280;62287;50.858;0.252;2022-08-19T00:05:42;101225.62;;;27.67;40.65
73936;BME280;62287;50.858;0.252;2022-08-19T00:06:13;101224.70;;;27.56;40.75
73936;BME280;62287;50.858;0.252;2022-08-19T00:06:46;101226.16;;;27.44;40.81
73936;BME280;62287;50.858;0.252;2022-08-19T00:07:17;101224.73;;;27.80;40.58
73936;BME280;62287;50.858;0.252;2022-08-19T00:07:49;101226.25;;;27.73;40.67
73936;BME280;62287;50.858;0.252;2022-08-19T00:08:20;101223.23;;;27.15;40.72
73936;BME280;62287;50.858;0.252;2022-08-19T00:08:52;101223.90;;;27.24;40.60
73936;BME280;62287;50.858;0.252;2022-08-19T00:09:24;101224.31;;;27.21;40.71
73936;BME280;62287;50.858;0.252;2022-08-19T00:09:55;101223.81;;;27.20;40.72
73936;BME280;62287;50.858;0.252;2022-08-19T00:10:27;101221.80;;;27.76;40.60
73936;BME280;62287;50.858;0.252;2022-08-19T00:10:58;101222.64;;;27.26;40.61
73936;BME280;62287;50.858;0.252;2022-08-19T00:11:29;101220.99;;;27.02;40.87
73936;BME280;62287;50.858;0.252;2022-08-19T00:12:01;101222.97;;;27.13;40.77
73936;BME280;62287;50.858;0.252;2022-08-19T00:12:33;101224.25;;;27.14;40.68
73936;BME280;62287;50.858;0.252;2022-08-19T00:13:04;101224.47;;;27.12;40.75
73936;BME280;62287;50.858;0.252;2022-08-19T00:13:35;101224.73;;;27.17;40.82
73936;BME280;62287;50.858;0.252;2022-08-19T00:14:08;101223.64;;;27.17;40.87
73936;BME280;62287;50.858;0.252;2022-08-19T00:14:41;101223.83;;;27.24;40.64
73936;BME280;62287;50.858;0.252;2022-08-19T00:15:14;101225.88;;;27.13;40.76
73936;BME280;62287;50.858;0.252;2022-08-19T00:15:46;101228.06;;;27.17;40.75
73936;BME280;62287;50.858;0.252;2022-08-19T00:16:18;101225.66;;;27.34;40.75
73936;BME280;62287;50.858;0.252;2022-08-19T00:16:49;101228.56;;;27.41;40.61
73936;BME280;62287;50.858;0.252;2022-08-19T00:17:21;101226.78;;;27.84;40.76
73936;BME280;62287;50.858;0.252;2022-08-19T00:17:52;101226.41;;;27.56;40.83
73936;BME280;62287;50.858;0.252;2022-08-19T00:18:24;101226.21;;;27.64;40.81
73936;BME280;62287;50.858;0.252;2022-08-19T00:18:56;101224.79;;;27.34;40.82
73936;BME280;62287;50.858;0.252;2022-08-19T00:19:27;101224.69;;;27.35;40.71
73936;BME280;62287;50.858;0.252;2022-08-19T00:19:58;101223.94;;;27.40;40.69
73936;BME280;62287;50.858;0.252;2022-08-19T00:20:30;101224.49;;;27.89;40.84
73936;BME280;62287;50.858;0.252;2022-08-19T00:21:01;101225.70;;;27.39;40.77
73936;BME280;62287;50.858;0.252;2022-08-19T00:21:33;101224.45;;;27.36;40.78
73936;BME280;62287;50.858;0.252;2022-08-19T00:22:04;101222.72;;;27.29;40.76
73936;BME280;62287;50.858;0.252;2022-08-19T00:22:35;101222.56;;;27.28;40.77
73936;BME280;62287;50.858;0.252;2022-08-19T00:23:07;101220.41;;;27.31;40.74
73936;BME280;62287;50.858;0.252;2022-08-19T00:23:39;101220.96;;;27.31;40.78
73936;BME280;62287;50.858;0.252;2022-08-19T00:24:12;101217.76;;;27.25;40.74
73936;BME280;62287;50.858;0.252;2022-08-19T00:24:44;101217.43;;;27.64;40.70
73936;BME280;62287;50.858;0.252;2022-08-19T00:25:16;101219.46;;;27.38;40.77
73936;BME280;62287;50.858;0.252;2022-08-19T00:25:47;101218.81;;;27.07;40.83
73936;BME280;62287;50.858;0.252;2022-08-19T00:26:19;101218.95;;;27.35;40.63
73936;BME280;62287;50.858;0.252;2022-08-19T00:26:50;101220.92;;;27.36;40.81
73936;BME280;62287;50.858;0.252;2022-08-19T00:27:22;101218.19;;;27.33;40.83
73936;BME280;62287;50.858;0.252;2022-08-19T00:27:54;101217.24;;;27.37;40.69
73936;BME280;62287;50.858;0.252;2022-08-19T00:28:25;101218.48;;;27.39;40.62
73936;BME280;62287;50.858;0.252;2022-08-19T00:28:56;101216.56;;;27.40;40.62
73936;BME280;62287;50.858;0.252;2022-08-19T00:29:28;101215.88;;;27.37;40.59
73936;BME280;62287;50.858;0.252;2022-08-19T00:29:59;101215.20;;;27.43;40.78
73936;BME280;62287;50.858;0.252;2022-08-19T00:30:31;101214.60;;;27.34;40.81
73936;BME280;62287;50.858;0.252;2022-08-19T00:31:02;101212.20;;;27.32;40.90
73936;BME280;62287;50.858;0.252;2022-08-19T00:31:34;101211.61;;;27.40;40.83
73936;BME280;62287;50.858;0.252;2022-08-19T00:32:05;101214.15;;;27.67;40.78
73936;BME280;62287;50.858;0.252;2022-08-19T00:32:37;101214.20;;;27.32;40.77
73936;BME280;62287;50.858;0.252;2022-08-19T00:33:08;101214.61;;;27.33;40.75
73936;BME280;62287;50.858;0.252;2022-08-19T00:33:39;101215.88;;;27.27;40.71
73936;BME280;62287;50.858;0.252;2022-08-19T00:34:11;101216.82;;;27.26;40.76
73936;BME280;62287;50.858;0.252;2022-08-19T00:34:43;101218.25;;;27.07;40.64
73936;BME280;62287;50.858;0.252;2022-08-19T00:35:14;101218.30;;;27.38;40.53
73936;BME280;62287;50.858;0.252;2022-08-19T00:35:46;101217.76;;;27.40;40.54
73936;BME280;62287;50.858;0.252;2022-08-19T00:36:17;101216.93;;;27.42;40.31
73936;BME280;62287;50.858;0.252;2022-08-19T00:36:49;101217.67;;;27.36;40.35
73936;BME280;62287;50.858;0.252;2022-08-19T00:37:20;101218.82;;;27.40;40.34
73936;BME280;62287;50.858;0.252;2022-08-19T00:37:53;101218.53;;;27.34;40.44
73936;BME280;62287;50.858;0.252;2022-08-19T00:38:25;101220.56;;;27.10;40.36
73936;BME280;62287;50.858;0.252;2022-08-19T00:38:56;101220.54;;;27.39;40.49
73936;BME280;62287;50.858;0.252;2022-08-19T00:39:27;101222.62;;;27.37;40.59
73936;BME280;62287;50.858;0.252;2022-08-19T00:39:58;101225.43;;;27.38;40.40
73936;BME280;62287;50.858;0.252;2022-08-19T00:40:29;101226.53;;;27.44;40.49
73936;BME280;62287;50.858;0.252;2022-08-19T00:41:00;101227.89;;;27.42;40.65
73936;BME280;62287;50.858;0.252;2022-08-19T00:41:32;101227.51;;;27.43;40.67
73936;BME280;62287;50.858;0.252;2022-08-19T00:42:03;101229.09;;;27.43;40.58
73936;BME280;62287;50.858;0.252;2022-08-19T00:42:34;101229.52;;;27.34;40.76
73936;BME280;62287;50.858;0.252;2022-08-19T00:43:09;101227.82;;;27.42;40.56
73936;BME280;62287;50.858;0.252;2022-08-19T00:43:41;101225.85;;;27.41;40.48
73936;BME280;62287;50.858;0.252;2022-08-19T00:44:14;101228.34;;;27.47;40.53
73936;BME280;62287;50.858;0.252;2022-08-19T00:44:47;101227.27;;;27.11;40.53
73936;BME280;62287;50.858;0.252;2022-08-19T00:45:22;101229.24;;;27.33;40.71
73936;BME280;62287;50.858;0.252;2022-08-19T00:45:54;101231.45;;;27.70;40.68
73936;BME280;62287;50.858;0.252;2022-08-19T00:46:25;101227.02;;;27.37;40.61
73936;BME280;62287;50.858;0.252;2022-08-19T00:46:58;101229.99;;;27.30;40.71
73936;BME280;62287;50.858;0.252;2022-08-19T00:47:29;101227.90;;;27.35;40.68
73936;BME280;62287;50.858;0.252;2022-08-19T00:48:00;101227.43;;;27.36;40.63
73936;BME280;62287;50.858;0.252;2022-08-19T00:48:32;101227.27;;;27.45;40.37
73936;BME280;62287;50.858;0.252;2022-08-19T00:49:09;101227.02;;;27.41;40.43
73936;BME280;62287;50.858;0.252;2022-08-19T00:49:45;101225.93;;;27.38;40.34
73936;BME280;62287;50.858;0.252;2022-08-19T00:50:19;101226.63;;;27.44;40.31
73936;BME280;62287;50.858;0.252;2022-08-19T00:50:52;101225.71;;;27.22;40.29
73936;BME280;62287;50.858;0.252;2022-08-19T00:51:24;101226.65;;;27.51;40.23
73936;BME280;62287;50.858;0.252;2022-08-19T00:51:59;101224.21;;;27.46;40.30
73936;BME280;62287;50.858;0.252;2022-08-19T00:52:33;101228.05;;;27.56;40.16
73936;BME280;62287;50.858;0.252;2022-08-19T00:53:06;101225.40;;;27.56;40.09
73936;BME280;62287;50.858;0.252;2022-08-19T00:53:37;101226.95;;;27.53;40.10
73936;BME280;62287;50.858;0.252;2022-08-19T00:54:09;101226.36;;;27.57;40.14
73936;BME280;62287;50.858;0.252;2022-08-19T00:54:42;101225.61;;;27.50;40.19
73936;BME280;62287;50.858;0.252;2022-08-19T00:55:16;101226.09;;;27.50;40.17
73936;BME280;62287;50.858;0.252;2022-08-19T00:55:50;101223.92;;;27.51;40.13
73936;BME280;62287;50.858;0.252;2022-08-19T00:56:23;101225.36;;;27.47;40.20
73936;BME280;62287;50.858;0.252;2022-08-19T00:56:55;101224.48;;;27.49;40.17
73936;BME280;62287;50.858;0.252;2022-08-19T00:57:30;101224.48;;;27.53;40.10
73936;BME280;62287;50.858;0.252;2022-08-19T00:58:06;101222.82;;;27.53;40.13
73936;BME280;62287;50.858;0.252;2022-08-19T00:58:38;101223.69;;;27.54;40.14
73936;BME280;62287;50.858;0.252;2022-08-19T00:59:10;101223.99;;;27.58;40.03
73936;BME280;62287;50.858;0.252;2022-08-19T00:59:43;101225.62;;;27.67;40.04
73936;BME280;62287;50.858;0.252;2022-08-19T01:00:17;101226.62;;;27.30;39.94
73936;BME280;62287;50.858;0.252;2022-08-19T01:00:49;101225.29;;;27.47;40.12
73936;BME280;62287;50.858;0.252;2022-08-19T01:01:20;101227.95;;;27.26;40.03
73936;BME280;62287;50.858;0.252;2022-08-19T01:01:52;101226.24;;;27.59;39.82
73936;BME280;62287;50.858;0.252;2022-08-19T01:02:24;101227.75;;;27.64;39.79
73936;BME280;62287;50.858;0.252;2022-08-19T01:02:55;101226.83;;;27.52;39.99
73936;BME280;62287;50.858;0.252;2022-08-19T01:03:26;101229.25;;;27.72;39.83
73936;BME280;62287;50.858;0.252;2022-08-19T01:03:58;101227.49;;;27.53;39.80
73936;BME280;62287;50.858;0.252;2022-08-19T01:04:29;101227.92;;;27.29;39.82
73936;BME280;62287;50.858;0.252;2022-08-19T01:05:03;101227.61;;;27.20;39.85
73936;BME280;62287;50.858;0.252;2022-08-19T01:05:37;101225.32;;;27.40;39.85
73936;BME280;62287;50.858;0.252;2022-08-19T01:06:10;101223.46;;;27.51;39.95
73936;BME280;62287;50.858;0.252;2022-08-19T01:06:42;101224.83;;;27.40;39.99
73936;BME280;62287;50.858;0.252;2022-08-19T01:07:13;101220.19;;;27.21;40.16
73936;BME280;62287;50.858;0.252;2022-08-19T01:07:45;101218.96;;;27.35;40.21
73936;BME280;62287;50.858;0.252;2022-08-19T01:08:18;101221.14;;;27.37;40.24
73936;BME280;62287;50.858;0.252;2022-08-19T01:08:49;101220.89;;;27.33;40.23
73936;BME280;62287;50.858;0.252;2022-08-19T01:09:20;101218.18;;;27.31;40.23
73936;BME280;62287;50.858;0.252;2022-08-19T01:09:52;101216.67;;;27.31;40.29
73936;BME280;62287;50.858;0.252;2022-08-19T01:10:26;101220.38;;;27.29;40.25
73936;BME280;62287;50.858;0.252;2022-08-19T01:10:59;101215.46;;;27.37;40.07
73936;BME280;62287;50.858;0.252;2022-08-19T01:11:34;101215.48;;;27.39;40.06
73936;BME280;62287;50.858;0.252;2022-08-19T01:12:06;101214.23;;;27.37;40.16
73936;BME280;62287;50.858;0.252;2022-08-19T01:12:38;101214.50;;;27.39;40.28
73936;BME280;62287;50.858;0.252;2022-08-19T01:13:10;101214.28;;;27.39;40.31
73936;BME280;62287;50.858;0.252;2022-08-19T01:13:42;101214.81;;;27.33;40.31
73936;BME280;62287;50.858;0.252;2022-08-19T01:14:13;101213.91;;;27.52;40.44
73936;BME280;62287;50.858;0.252;2022-08-19T01:14:45;101213.61;;;27.08;40.26
73936;BME280;62287;50.858;0.252;2022-08-19T01:15:19;101212.69;;;27.44;40.18
73936;BME280;62287;50.858;0.252;2022-08-19T01:16:00;101213.76;;;27.44;40.19
73936;BME280;62287;50.858;0.252;2022-08-19T01:16:32;101212.17;;;27.43;40.23
73936;BME280;62287;50.858;0.252;2022-08-19T01:17:05;101212.10;;;27.38;40.21
73936;BME280;62287;50.858;0.252;2022-08-19T01:17:39;101213.85;;;27.41;40.15
73936;BME280;62287;50.858;0.252;2022-08-19T01:18:18;101211.36;;;27.46;40.13
73936;BME280;62287;50.858;0.252;2022-08-19T01:18:50;101214.68;;;27.35;40.07
73936;BME280;62287;50.858;0.252;2022-08-19T01:19:27;101214.90;;;27.37;40.01
73936;BME280;62287;50.858;0.252;2022-08-19T01:20:00;101214.73;;;27.69;39.98
73936;BME280;62287;50.858;0.252;2022-08-19T01:20:31;101214.53;;;27.49;39.84
73936;BME280;62287;50.858;0.252;2022-08-19T01:21:09;101214.45;;;27.40;40.01
73936;BME280;62287;50.858;0.252;2022-08-19T01:21:46;101214.42;;;27.43;39.97
73936;BME280;62287;50.858;0.252;2022-08-19T01:22:25;101214.84;;;27.21;39.88
73936;BME280;62287;50.858;0.252;2022-08-19T01:22:58;101217.47;;;27.47;39.92
73936;BME280;62287;50.858;0.252;2022-08-19T01:23:30;101216.04;;;27.44;39.88
73936;BME280;62287;50.858;0.252;2022-08-19T01:24:01;101215.77;;;27.49;39.86
73936;BME280;62287;50.858;0.252;2022-08-19T01:24:32;101216.16;;;27.47;39.85
73936;BME280;62287;50.858;0.252;2022-08-19T01:25:04;101217.16;;;27.39;40.10
73936;BME280;62287;50.858;0.252;2022-08-19T01:25:41;101219.23;;;27.41;39.95
73936;BME280;62287;50.858;0.252;2022-08-19T01:26:15;101218.54;;;27.39;39.98
73936;BME280;62287;50.858;0.252;2022-08-19T01:26:47;101219.89;;;27.38;40.00
73936;BME280;62287;50.858;0.252;2022-08-19T01:27:18;101220.92;;;27.43;39.98
73936;BME280;62287;50.858;0.252;2022-08-19T01:27:50;101217.89;;;27.49;39.92
73936;BME280;62287;50.858;0.252;2022-08-19T01:28:24;101218.07;;;27.56;39.82
73936;BME280;62287;50.858;0.252;2022-08-19T01:28:57;101220.41;;;27.47;39.93
73936;BME280;62287;50.858;0.252;2022-08-19T01:29:29;101218.84;;;27.40;39.95
73936;BME280;62287;50.858;0.252;2022-08-19T01:30:00;101218.64;;;27.39;39.92
73936;BME280;62287;50.858;0.252;2022-08-19T01:30:34;101218.62;;;27.12;40.02
73936;BME280;62287;50.858;0.252;2022-08-19T01:31:06;101217.03;;;27.40;40.04
73936;BME280;62287;50.858;0.252;2022-08-19T01:31:38;101216.17;;;27.46;39.89
73936;BME280;62287;50.858;0.252;2022-08-19T01:32:12;101214.36;;;27.39;40.01
73936;BME280;62287;50.858;0.252;2022-08-19T01:32:44;101213.26;;;27.36;39.97
73936;BME280;62287;50.858;0.252;2022-08-19T01:33:15;101213.02;;;27.53;39.77
73936;BME280;62287;50.858;0.252;2022-08-19T01:33:47;101211.49;;;27.47;39.85
73936;BME280;62287;50.858;0.252;2022-08-19T01:34:19;101212.12;;;27.34;39.88
73936;BME280;62287;50.858;0.252;2022-08-19T01:34:50;101210.44;;;27.23;39.99
73936;BME280;62287;50.858;0.252;2022-08-19T01:35:23;101209.42;;;27.42;39.87
73936;BME280;62287;50.858;0.252;2022-08-19T01:36:04;101209.06;;;27.41;39.78
73936;BME280;62287;50.858;0.252;2022-08-19T01:36:38;101209.03;;;27.52;39.72
73936;BME280;62287;50.858;0.252;2022-08-19T01:37:11;101208.76;;;27.38;39.88
73936;BME280;62287;50.858;0.252;2022-08-19T01:37:44;101210.71;;;27.43;39.92
73936;BME280;62287;50.858;0.252;2022-08-19T01:38:21;101211.22;;;27.50;39.89
73936;BME280;62287;50.858;0.252;2022-08-19T01:38:53;101209.83;;;27.44;39.95
73936;BME280;62287;50.858;0.252;2022-08-19T01:39:25;101208.76;;;27.34;40.00
73936;BME280;62287;50.858;0.252;2022-08-19T01:39:57;101206.54;;;27.36;39.86
73936;BME280;62287;50.858;0.252;2022-08-19T01:40:31;101211.12;;;27.46;39.84
73936;BME280;62287;50.858;0.252;2022-08-19T01:41:02;101208.65;;;27.38;40.05
73936;BME280;62287;50.858;0.252;2022-08-19T01:41:34;101205.76;;;27.34;40.09
73936;BME280;62287;50.858;0.252;2022-08-19T01:42:06;101205.78;;;27.60;40.02
73936;BME280;62287;50.858;0.252;2022-08-19T01:42:38;101207.37;;;27.35;40.03
73936;BME280;62287;50.858;0.252;2022-08-19T01:43:09;101204.51;;;27.30;40.11
73936;BME280;62287;50.858;0.252;2022-08-19T01:43:41;101206.81;;;27.29;40.07
73936;BME280;62287;50.858;0.252;2022-08-19T01:44:12;101205.37;;;27.27;40.01
73936;BME280;62287;50.858;0.252;2022-08-19T01:44:43;101204.79;;;27.29;39.96
73936;BME280;62287;50.858;0.252;2022-08-19T01:45:15;101205.53;;;27.42;40.00
73936;BME280;62287;50.858;0.252;2022-08-19T01:45:46;101205.44;;;27.33;39.92
73936;BME280;62287;50.858;0.252;2022-08-19T01:46:18;101205.12;;;27.36;39.92
73936;BME280;62287;50.858;0.252;2022-08-19T01:46:50;101205.27;;;27.29;39.96
73936;BME280;62287;50.858;0.252;2022-08-19T01:47:22;101204.11;;;27.04;39.98
73936;BME280;62287;50.858;0.252;2022-08-19T01:47:53;101203.73;;;27.35;39.91
73936;BME280;62287;50.858;0.252;2022-08-19T01:48:24;101204.48;;;27.37;39.81
73936;BME280;62287;50.858;0.252;2022-08-19T01:48:55;101201.66;;;27.26;39.97
73936;BME280;62287;50.858;0.252;2022-08-19T01:49:27;101201.89;;;27.27;39.94
73936;BME280;62287;50.858;0.252;2022-08-19T01:49:58;101202.87;;;27.33;39.92
73936;BME280;62287;50.858;0.252;2022-08-19T01:50:31;101198.90;;;27.67;39.78
73936;BME280;62287;50.858;0.252;2022-08-19T01:51:03;101198.57;;;27.33;39.91
73936;BME280;62287;50.858;0.252;2022-08-19T01:51:35;101198.08;;;27.36;39.85
73936;BME280;62287;50.858;0.252;2022-08-19T01:52:06;101199.18;;;27.66;39.83
73936;BME280;62287;50.858;0.252;2022-08-19T01:52:39;101199.10;;;27.41;39.80
73936;BME280;62287;50.858;0.252;2022-08-19T01:53:11;101198.06;;;27.39;39.84
73936;BME280;62287;50.858;0.252;2022-08-19T01:53:45;101199.56;;;27.93;39.84
73936;BME280;62287;50.858;0.252;2022-08-19T01:54:19;101198.15;;;27.36;39.93
73936;BME280;62287;50.858;0.252;2022-08-19T01:54:50;101198.02;;;27.69;39.83
73936;BME280;62287;50.858;0.252;2022-08-19T01:55:22;101197.78;;;27.37;39.84
73936;BME280;62287;50.858;0.252;2022-08-19T01:55:53;101198.93;;;27.36;39.88
73936;BME280;62287;50.858;0.252;2022-08-19T01:56:24;101198.10;;;27.65;39.83
73936;BME280;62287;50.858;0.252;2022-08-19T01:57:00;101197.55;;;27.55;39.79
73936;BME280;62287;50.858;0.252;2022-08-19T01:57:32;101196.24;;;27.39;39.78
73936;BME280;62287;50.858;0.252;2022-08-19T01:58:05;101200.13;;;27.40;39.81
73936;BME280;62287;50.858;0.252;2022-08-19T01:58:41;101199.42;;;27.68;39.79
73936;BME280;62287;50.858;0.252;2022-08-19T01:59:16;101202.93;;;27.42;39.72
73936;BME280;62287;50.858;0.252;2022-08-19T01:59:48;101203.25;;;27.42;39.75
73936;BME280;62287;50.858;0.252;2022-08-19T02:00:22;101201.82;;;27.89;39.78
73936;BME280;62287;50.858;0.252;2022-08-19T02:00:54;101203.30;;;27.38;39.75
73936;BME280;62287;50.858;0.252;2022-08-19T02:01:25;101202.99;;;27.30;39.80
73936;BME280;62287;50.858;0.252;2022-08-19T02:01:56;101203.08;;;27.25;39.78
73936;BME280;62287;50.858;0.252;2022-08-19T02:02:27;101203.49;;;27.29;39.84
73936;BME280;62287;50.858;0.252;2022-08-19T02:02:58;101203.56;;;27.32;39.82
73936;BME280;62287;50.858;0.252;2022-08-19T02:03:30;101203.33;;;27.50;39.87
73936;BME280;62287;50.858;0.252;2022-08-19T02:04:02;101201.38;;;27.27;39.84
73936;BME280;62287;50.858;0.252;2022-08-19T02:04:33;101202.93;;;27.25;39.85
73936;BME280;62287;50.858;0.252;2022-08-19T02:05:05;101206.46;;;27.29;39.75
73936;BME280;62287;50.858;0.252;2022-08-19T02:05:37;101205.83;;;27.29;39.84
73936;BME280;62287;50.858;0.252;2022-08-19T02:06:08;101206.60;;;27.30;39.93
73936;BME280;62287;50.858;0.252;2022-08-19T02:06:40;101205.68;;;27.33;39.85
73936;BME280;62287;50.858;0.252;2022-08-19T02:07:12;101206.98;;;27.40;39.93
73936;BME280;62287;50.858;0.252;2022-08-19T02:07:43;101203.84;;;27.21;39.96
73936;BME280;62287;50.858;0.252;2022-08-19T02:08:15;101202.72;;;27.26;39.94
73936;BME280;62287;50.858;0.252;2022-08-19T02:08:46;101205.36;;;27.28;39.89
73936;BME280;62287;50.858;0.252;2022-08-19T02:09:17;101207.09;;;27.27;39.88
73936;BME280;62287;50.858;0.252;2022-08-19T02:09:48;101204.94;;;27.55;39.97
73936;BME280;62287;50.858;0.252;2022-08-19T02:10:21;101206.72;;;27.17;40.05
73936;BME280;62287;50.858;0.252;2022-08-19T02:10:53;101204.01;;;27.31;39.97
73936;BME280;62287;50.858;0.252;2022-08-19T02:11:27;101201.73;;;27.21;40.04
73936;BME280;62287;50.858;0.252;2022-08-19T02:11:59;101202.42;;;27.45;39.90
73936;BME280;62287;50.858;0.252;2022-08-19T02:12:30;101200.74;;;27.29;39.86
73936;BME280;62287;50.858;0.252;2022-08-19T02:13:01;101198.70;;;27.44;39.75
73936;BME280;62287;50.858;0.252;2022-08-19T02:13:33;101201.00;;;27.29;39.78
73936;BME280;62287;50.858;0.252;2022-08-19T02:14:07;101199.85;;;27.36;39.87
73936;BME280;62287;50.858;0.252;2022-08-19T02:14:38;101200.61;;;27.93;39.78
73936;BME280;62287;50.858;0.252;2022-08-19T02:15:10;101200.04;;;27.43;39.74
73936;BME280;62287;50.858;0.252;2022-08-19T02:15:42;101201.27;;;27.33;39.77
73936;BME280;62287;50.858;0.252;2022-08-19T02:16:13;101201.20;;;27.29;39.82
73936;BME280;62287;50.858;0.252;2022-08-19T02:16:44;101201.09;;;27.31;39.84
73936;BME280;62287;50.858;0.252;2022-08-19T02:17:15;101201.19;;;27.28;39.79
73936;BME280;62287;50.858;0.252;2022-08-19T02:17:47;101202.35;;;27.30;39.82
73936;BME280;62287;50.858;0.252;2022-08-19T02:18:18;101203.64;;;27.30;39.84
73936;BME280;62287;50.858;0.252;2022-08-19T02:18:49;101203.56;;;27.32;39.89
73936;BME280;62287;50.858;0.252;2022-08-19T02:19:21;101201.08;;;27.43;39.69
73936;BME280;62287;50.858;0.252;2022-08-19T02:19:52;101202.84;;;27.74;39.71
73936;BME280;62287;50.858;0.252;2022-08-19T02:20:23;101203.59;;;27.44;39.83
73936;BME280;62287;50.858;0.252;2022-08-19T02:20:54;101200.71;;;27.33;39.86
73936;BME280;62287;50.858;0.252;2022-08-19T02:21:26;101204.41;;;27.96;39.78
73936;BME280;62287;50.858;0.252;2022-08-19T02:21:57;101204.40;;;27.97;39.87
73936;BME280;62287;50.858;0.252;2022-08-19T02:22:28;101202.57;;;27.27;39.86
73936;BME280;62287;50.858;0.252;2022-08-19T02:23:00;101201.44;;;27.30;39.81
73936;BME280;62287;50.858;0.252;2022-08-19T02:23:31;101200.56;;;27.17;39.95
73936;BME280;62287;50.858;0.252;2022-08-19T02:24:03;101200.27;;;27.25;39.84
73936;BME280;62287;50.858;0.252;2022-08-19T02:24:34;101201.71;;;27.26;39.88
73936;BME280;62287;50.858;0.252;2022-08-19T02:25:05;101201.19;;;27.48;39.89
73936;BME280;62287;50.858;0.252;2022-08-19T02:25:37;101200.65;;;27.51;39.91
73936;BME280;62287;50.858;0.252;2022-08-19T02:26:09;101198.90;;;27.27;39.98
73936;BME280;62287;50.858;0.252;2022-08-19T02:26:40;101200.36;;;26.87;40.04
73936;BME280;62287;50.858;0.252;2022-08-19T02:27:17;101200.01;;;27.77;39.89
73936;BME280;62287;50.858;0.252;2022-08-19T02:27:48;101202.90;;;27.45;39.98
73936;BME280;62287;50.858;0.252;2022-08-19T02:28:19;101202.90;;;27.29;39.89
73936;BME280;62287;50.858;0.252;2022-08-19T02:28:56;101202.27;;;27.24;39.95
73936;BME280;62287;50.858;0.252;2022-08-19T02:29:27;101205.34;;;27.33;39.91
73936;BME280;62287;50.858;0.252;2022-08-19T02:29:58;101201.88;;;27.44;40.02
73936;BME280;62287;50.858;0.252;2022-08-19T02:30:30;101202.07;;;27.25;39.91
73936;BME280;62287;50.858;0.252;2022-08-19T02:31:02;101201.00;;;27.15;40.06
73936;BME280;62287;50.858;0.252;2022-08-19T02:31:33;101203.32;;;27.43;40.07
73936;BME280;62287;50.858;0.252;2022-08-19T02:32:04;101205.06;;;27.22;39.93
73936;BME280;62287;50.858;0.252;2022-08-19T02:32:35;101204.79;;;27.17;39.93
73936;BME280;62287;50.858;0.252;2022-08-19T02:33:07;101206.04;;;27.20;39.95
73936;BME280;62287;50.858;0.252;2022-08-19T02:33:38;101208.65;;;27.25;39.90
73936;BME280;62287;50.858;0.252;2022-08-19T02:34:10;101207.42;;;27.50;40.06
73936;BME280;62287;50.858;0.252;2022-08-19T02:34:41;101206.99;;;27.28;39.98
73936;BME280;62287;50.858;0.252;2022-08-19T02:35:13;101209.62;;;27.17;40.03
73936;BME280;62287;50.858;0.252;2022-08-19T02:35:46;101209.60;;;27.16;40.01
73936;BME280;62287;50.858;0.252;2022-08-19T02:36:17;101209.79;;;27.36;39.92
73936;BME280;62287;50.858;0.252;2022-08-19T02:36:49;101208.53;;;27.35;39.82
73936;BME280;62287;50.858;0.252;2022-08-19T02:37:20;101208.04;;;27.42;39.75
73936;BME280;62287;50.858;0.252;2022-08-19T02:37:51;101207.53;;;27.36;39.78
73936;BME280;62287;50.858;0.252;2022-08-19T02:38:22;101207.17;;;27.46;39.78
73936;BME280;62287;50.858;0.252;2022-08-19T02:38:54;101205.08;;;27.41;39.73
73936;BME280;62287;50.858;0.252;2022-08-19T02:39:25;101209.40;;;27.45;39.73
73936;BME280;62287;50.858;0.252;2022-08-19T02:39:56;101207.50;;;27.45;39.75
73936;BME280;62287;50.858;0.252;2022-08-19T02:40:28;101208.89;;;27.40;39.78
73936;BME280;62287;50.858;0.252;2022-08-19T02:41:02;101208.28;;;27.31;39.85
73936;BME280;62287;50.858;0.252;2022-08-19T02:41:34;101210.31;;;27.39;39.72
73936;BME280;62287;50.858;0.252;2022-08-19T02:42:05;101210.15;;;27.31;39.81
73936;BME280;62287;50.858;0.252;2022-08-19T02:42:36;101210.50;;;27.35;39.75
73936;BME280;62287;50.858;0.252;2022-08-19T02:43:08;101210.21;;;27.41;39.70
73936;BME280;62287;50.858;0.252;2022-08-19T02:43:40;101212.69;;;27.42;39.63
73936;BME280;62287;50.858;0.252;2022-08-19T02:44:11;101211.56;;;27.49;39.70
73936;BME280;62287;50.858;0.252;2022-08-19T02:44:42;101214.55;;;27.31;39.77
73936;BME280;62287;50.858;0.252;2022-08-19T02:45:14;101213.22;;;27.33;39.78
73936;BME280;62287;50.858;0.252;2022-08-19T02:45:45;101212.65;;;27.45;39.61
73936;BME280;62287;50.858;0.252;2022-08-19T02:46:19;101213.76;;;27.42;39.64
73936;BME280;62287;50.858;0.252;2022-08-19T02:46:51;101213.14;;;27.33;39.74
73936;BME280;62287;50.858;0.252;2022-08-19T02:47:22;101213.40;;;27.45;39.57
73936;BME280;62287;50.858;0.252;2022-08-19T02:47:53;101215.49;;;27.38;39.64
73936;BME280;62287;50.858;0.252;2022-08-19T02:48:25;101214.57;;;27.67;39.77